Estació municipal de Cànoves i Samalús (Vallès Oriental, P.N.del Montseny)

Consulta les dades en temps real de l'estació municipal de Cànoves i Samalús





Hora UTC 08:30
Temperatura 18.2 ºC
Humitat 77.4 %
Pressió 1011.2 hPa
Pluja 0.0 mm
Velocitat vent 9.4 km/h
Direcció vent S
Radiació solar 646.3 W/m²

Webcam

Dades diàries 2026-05-04



Hora UTC (hivern +1h; estiu +2h)
Temperatura (ºC) Humitat (%) Pressió (hPa) Velocitat vent (km/h) Precipitació (mm) Radiació solar (W/m²)
Hora UTC Aire Humitat Pressió Vel. Dir. Vel. Max Dir. Intent. màx 5 min. Rad. Sol.
00:05 13.5 94.3 1013.0 0.0 NNE 0.0 S 0.0 0.1
00:10 13.4 94.4 1013.0 0.0 NNE 0.0 S 0.0 0.1
00:15 13.4 94.5 1013.0 0.8 WNW 2.5 WNW 0.0 0.1
00:20 13.5 94.8 1013.0 1.7 NW 2.8 NW 0.0 0.1
00:25 13.5 94.9 1013.1 0.6 NE 2.1 NE 0.0 0.1
00:30 13.6 95.0 1013.1 0.2 NE 1.8 NE 0.0 0.1
00:35 13.6 95.0 1013.0 0.0 NNE 0.0 ESE 0.0 0.1
00:40 13.6 95.0 1012.9 1.6 WNW 2.8 WNW 0.0 0.1
00:45 13.6 94.9 1012.9 1.8 WNW 2.8 W 0.0 0.1
00:50 13.6 95.0 1012.8 1.9 NW 3.2 NW 0.0 0.1
00:55 13.6 95.1 1012.8 0.5 NNW 2.1 NW 0.0 0.1
01:00 13.6 95.0 1012.6 0.8 NNW 4.2 NNW 0.0 0.1
01:05 13.5 94.9 1012.6 3.5 NW 6.0 WNW 0.0 0.1
01:10 13.5 94.9 1012.5 2.8 NW 4.6 NW 0.0 0.1
01:15 13.5 94.9 1012.4 3.9 WNW 6.7 WNW 0.0 0.1
01:20 13.5 94.9 1012.5 3.4 WNW 5.3 WNW 0.0 0.1
01:25 13.6 94.7 1012.4 3.5 WNW 5.3 WNW 0.0 0.1
01:30 13.6 94.6 1012.5 4.3 WNW 6.7 NW 0.0 0.1
01:35 13.6 94.4 1012.5 2.9 WNW 4.6 WNW 0.0 0.1
01:40 13.6 94.2 1012.5 1.3 WSW 4.6 WNW 0.0 0.1
01:45 13.7 94.3 1012.4 0.1 SSW 1.4 SSW 0.0 0.1
01:50 13.8 94.3 1012.3 0.0 NNE 0.0 SSW 0.0 0.1
01:55 13.8 94.1 1012.3 0.5 NW 2.5 NW 0.0 0.1
02:00 13.8 94.1 1012.2 1.0 SW 2.1 SW 0.0 0.1
02:05 13.8 94.1 1012.2 1.1 WSW 2.5 WSW 0.0 0.1
02:10 13.7 93.8 1012.2 2.1 W 6.0 WSW 0.0 0.1
02:15 13.7 93.6 1012.2 3.4 WNW 5.3 WSW 0.0 0.1
02:20 13.7 93.2 1012.2 4.4 NW 7.1 WNW 0.0 0.1
02:25 13.7 92.6 1012.1 2.1 W 3.9 WNW 0.0 0.1
02:30 13.8 92.5 1012.1 1.7 WNW 2.8 WNW 0.0 0.1
02:35 13.9 92.4 1012.0 1.4 WNW 3.2 WNW 0.0 0.1
02:40 13.8 92.1 1012.0 1.0 W 2.1 W 0.0 0.1
02:45 13.9 92.1 1012.0 0.1 W 1.8 W 0.0 0.1
02:50 14.0 92.4 1012.1 1.0 S 3.2 S 0.0 0.1
02:55 14.1 92.5 1012.2 2.4 SSE 3.5 S 0.0 0.1
03:00 14.1 92.8 1012.2 1.2 SSE 3.2 SSE 0.0 0.1
03:05 14.1 93.0 1012.3 0.6 SE 2.1 SE 0.0 0.1
03:10 14.1 93.1 1012.3 0.0 NNE 0.0 SE 0.0 0.1
03:15 14.1 93.2 1012.3 0.0 NNE 0.0 SE 0.0 0.1
03:20 14.1 93.3 1012.3 0.0 NNE 0.0 SE 0.0 0.1
03:25 14.0 93.3 1012.1 1.3 NNW 2.8 NNW 0.0 0.1
03:30 14.0 93.4 1012.1 0.3 NW 1.8 NW 0.0 0.1
03:35 13.9 93.2 1012.0 2.5 NW 6.0 NW 0.0 0.1
03:40 13.7 92.8 1012.0 3.5 NW 6.0 NW 0.0 0.1
03:45 13.7 92.7 1012.0 3.0 NW 6.0 NW 0.0 0.1
03:50 13.7 92.7 1011.9 1.1 WNW 2.5 WNW 0.0 0.1
03:55 13.8 92.9 1011.9 0.2 WNW 1.8 WNW 0.0 0.1
04:00 14.0 93.3 1012.0 2.8 SSE 6.7 SSE 0.0 0.1
04:05 14.0 93.5 1012.0 2.3 SE 3.9 SSE 0.0 0.1
04:10 14.0 93.6 1011.9 3.4 SE 4.9 ESE 0.0 0.1
04:15 13.9 93.8 1011.9 0.2 SSE 2.5 SE 0.0 0.1
04:20 13.9 93.9 1011.8 1.9 NNW 4.6 NNW 0.0 0.2
04:25 13.8 93.7 1011.8 3.1 WNW 6.4 WSW 0.0 0.2
04:30 13.6 93.5 1011.7 3.9 W 6.7 W 0.0 0.4
04:35 13.5 93.5 1011.6 3.3 WNW 6.4 W 0.0 0.8
04:40 13.5 93.5 1011.6 3.5 WSW 6.0 WSW 0.0 1.6
04:45 13.5 93.4 1011.7 6.1 WSW 9.5 WSW 0.0 2.5
04:50 13.5 93.3 1011.7 7.3 WSW 11.6 WSW 0.0 3.1
04:55 13.5 93.3 1011.9 4.9 WSW 9.2 W 0.0 3.3
05:00 13.5 93.4 1011.9 5.6 WSW 8.8 WSW 0.0 5.1
05:05 13.6 93.6 1011.9 3.4 WSW 8.5 SW 0.0 9.3
05:10 13.5 93.7 1011.9 3.0 SW 6.4 SW 0.0 11.3
05:15 13.5 93.8 1011.8 3.8 WSW 7.1 W 0.0 13.1
05:20 13.5 93.9 1011.9 3.5 WSW 6.7 WSW 0.0 16.5
05:25 13.5 94.1 1011.8 4.2 WSW 7.1 WSW 0.0 22.7
05:30 13.5 94.2 1011.8 4.1 WSW 5.6 W 0.0 46.4
05:35 13.5 94.5 1011.8 3.8 W 6.0 W 0.0 80.0
05:40 13.6 94.6 1011.8 4.3 WSW 7.1 W 0.0 119.5
05:45 13.7 94.6 1011.8 3.4 WNW 6.0 WNW 0.0 147.4
05:50 13.9 94.2 1011.7 3.3 W 6.4 W 0.0 175.5
05:55 14.2 94.1 1011.7 2.1 S 5.3 SSE 0.0 191.7
06:00 14.3 92.4 1011.7 2.4 WSW 6.4 WSW 0.0 192.8
06:05 14.6 91.3 1011.6 3.0 S 8.1 S 0.0 175.6
06:10 15.0 88.6 1011.7 4.9 S 8.1 S 0.0 191.7
06:15 15.4 87.6 1011.7 5.4 SSE 8.5 SSE 0.0 204.6
06:20 15.7 88.0 1011.7 5.9 SE 9.2 SSE 0.0 218.3
06:25 15.8 88.7 1011.6 5.0 SSE 7.4 SE 0.0 232.1
06:30 15.8 89.0 1011.6 5.3 SE 11.3 SSE 0.0 247.1
06:35 15.8 89.0 1011.6 3.5 S 8.5 SE 0.0 253.1
06:40 15.7 87.1 1011.6 6.4 SW 11.6 W 0.0 106.0
06:45 15.8 85.7 1011.7 8.2 SSW 15.2 S 0.0 67.5
06:50 15.9 85.8 1011.7 7.5 SSW 15.2 S 0.0 244.8
06:55 16.1 85.1 1011.6 6.1 SW 15.2 SW 0.0 325.8
07:00 16.2 84.3 1011.6 5.8 SSW 14.8 SSW 0.0 345.5
07:05 16.4 83.7 1011.6 6.0 SW 13.1 SW 0.0 362.1
07:10 16.7 83.2 1011.6 5.5 SW 14.8 SW 0.0 372.7
07:15 16.8 82.8 1011.5 6.4 SW 17.3 SSW 0.0 381.9
07:20 16.8 82.1 1011.5 10.9 S 19.1 S 0.0 407.7
07:25 17.0 83.2 1011.6 7.0 SSW 16.9 S 0.0 434.0
07:30 17.2 82.2 1011.6 9.2 SSW 16.9 SSW 0.0 392.0
07:35 17.0 81.9 1011.6 7.1 SSW 14.5 SSE 0.0 341.2
07:40 17.1 80.9 1011.5 10.4 S 18.4 S 0.0 482.6
07:45 17.2 80.5 1011.4 9.2 S 16.9 SSW 0.0 426.2
07:50 17.4 80.3 1011.4 10.4 S 17.6 S 0.0 472.4
07:55 17.5 79.9 1011.4 9.4 S 15.5 S 0.0 542.8
08:00 17.7 79.4 1011.3 9.4 S 15.5 S 0.0 509.3
08:05 17.9 80.3 1011.3 8.8 S 16.6 S 0.0 598.9
08:10 18.0 79.0 1011.2 9.3 SSW 19.4 SSW 0.0 315.6
08:15 17.9 78.5 1011.2 6.2 S 15.2 SSE 0.0 336.9
08:20 17.9 78.1 1011.2 8.9 SSW 15.5 SSW 0.0 388.3
08:25 17.9 78.0 1011.2 9.7 SSW 15.5 SW 0.0 587.1
08:30 18.2 77.4 1011.2 9.4 S 16.2 SSW 0.0 646.3
Màxima 18.2 95.1 1013.1 10.9 S 19.4 SSW 0.0 646.3
Mínima 13.4 77.4 1011.2
Total 0.0